Time;durP1;ratioP1;P1;durP2;ratioP2;P2;SDS_P1;SDS_P2;PMS_P1;PMS_P2;Temp;Humidity;BMP_temperature;BMP_pressure;BME280_temperature;BME280_humidity;BME280_pressure;Samples;Min_cycle;Max_cycle;Signal;HPM_P1;HPM_P2
2022/11/07 00:01:11;;;;;;;2.40;2.30;;;;;;;;;;4952844;28;20227;-65
2022/11/07 00:03:37;;;;;;;2.50;2.40;;;;;;;;;;4944559;28;20755;-65
2022/11/07 00:06:03;;;;;;;2.40;2.30;;;;;;;;;;4950946;28;20230;-66
2022/11/07 00:08:32;;;;;;;2.40;2.30;;;;;;;;;;4974659;28;20258;-66
2022/11/07 00:10:58;;;;;;;2.30;2.20;;;;;;;;;;4949411;28;20611;-65
2022/11/07 00:13:26;;;;;;;2.27;2.17;;;;;;;;;;4946126;28;20246;-65
2022/11/07 00:15:52;;;;;;;2.40;2.30;;;;;;;;;;4929265;28;20242;-65
2022/11/07 00:18:18;;;;;;;2.50;2.40;;;;;;;;;;4950395;28;20600;-66
2022/11/07 00:20:44;;;;;;;2.50;2.40;;;;;;;;;;4944507;28;20252;-66
2022/11/07 00:23:09;;;;;;;2.50;2.40;;;;;;;;;;4946886;28;20222;-65
2022/11/07 00:25:35;;;;;;;2.70;2.60;;;;;;;;;;4949481;28;20276;-64
2022/11/07 00:28:01;;;;;;;2.60;2.50;;;;;;;;;;4965319;28;20222;-65
2022/11/07 00:30:27;;;;;;;2.50;2.40;;;;;;;;;;4940918;28;20309;-65
2022/11/07 00:32:53;;;;;;;2.60;2.50;;;;;;;;;;4947320;28;20313;-64
2022/11/07 00:35:19;;;;;;;2.60;2.50;;;;;;;;;;4946483;28;20313;-66
2022/11/07 00:37:45;;;;;;;2.50;2.40;;;;;;;;;;4948041;28;20234;-64
2022/11/07 00:40:11;;;;;;;2.77;2.67;;;;;;;;;;4920057;28;20652;-66
2022/11/07 00:42:37;;;;;;;2.47;2.37;;;;;;;;;;4936330;28;20859;-66
2022/11/07 00:45:03;;;;;;;2.40;2.30;;;;;;;;;;4929657;28;20251;-65
2022/11/07 00:47:29;;;;;;;2.80;2.70;;;;;;;;;;4934897;28;20261;-66
2022/11/07 00:49:55;;;;;;;2.40;2.30;;;;;;;;;;4950166;28;20253;-63
2022/11/07 00:52:21;;;;;;;2.40;2.30;;;;;;;;;;4959735;28;20384;-65
2022/11/07 00:54:46;;;;;;;2.40;2.30;;;;;;;;;;4957206;28;20603;-63
2022/11/07 00:57:12;;;;;;;2.80;2.70;;;;;;;;;;4954593;28;20259;-66
2022/11/07 00:59:38;;;;;;;2.40;2.30;;;;;;;;;;4941996;28;20226;-65
2022/11/07 01:02:04;;;;;;;2.60;2.50;;;;;;;;;;4937198;28;20759;-65
2022/11/07 01:07:15;;;;;;;2.90;2.80;;;;;;;;;;4949500;28;20245;-65
2022/11/07 01:09:40;;;;;;;2.70;2.60;;;;;;;;;;4944330;28;20930;-64
2022/11/07 01:12:06;;;;;;;2.63;2.53;;;;;;;;;;4954307;28;20221;-64
2022/11/07 01:14:32;;;;;;;2.50;2.40;;;;;;;;;;4932877;28;20237;-65
2022/11/07 01:16:58;;;;;;;2.60;2.50;;;;;;;;;;4958051;28;20687;-64
2022/11/07 01:19:24;;;;;;;2.30;2.20;;;;;;;;;;4945399;28;20321;-66
2022/11/07 01:21:50;;;;;;;2.53;2.43;;;;;;;;;;4938037;28;20222;-64
2022/11/07 01:24:16;;;;;;;2.47;2.37;;;;;;;;;;4957693;28;20272;-66
2022/11/07 01:26:43;;;;;;;2.50;2.40;;;;;;;;;;4956477;28;20229;-65
2022/11/07 01:29:09;;;;;;;2.73;2.63;;;;;;;;;;4961409;28;20226;-64
2022/11/07 01:31:35;;;;;;;2.30;2.20;;;;;;;;;;4957135;28;20293;-64
2022/11/07 01:34:01;;;;;;;2.60;2.50;;;;;;;;;;4944693;28;20791;-66
2022/11/07 01:36:27;;;;;;;2.60;2.50;;;;;;;;;;4945346;28;20270;-64
2022/11/07 01:38:53;;;;;;;2.83;2.73;;;;;;;;;;4954187;28;20226;-66
2022/11/07 01:41:20;;;;;;;2.70;2.60;;;;;;;;;;4962910;28;21986;-64
2022/11/07 01:44:05;;;;;;;2.80;2.70;;;;;;;;;;4953266;28;20230;-64
2022/11/07 01:46:34;;;;;;;2.40;2.30;;;;;;;;;;4940298;28;20647;-65
2022/11/07 01:49:02;;;;;;;2.60;2.50;;;;;;;;;;4949619;28;20610;-64
2022/11/07 01:51:28;;;;;;;2.43;2.33;;;;;;;;;;4955901;28;20224;-64
2022/11/07 01:53:54;;;;;;;2.50;2.40;;;;;;;;;;4958297;28;20229;-64
2022/11/07 01:56:21;;;;;;;2.47;2.37;;;;;;;;;;4960025;28;20716;-64
2022/11/07 01:58:47;;;;;;;2.43;2.33;;;;;;;;;;4945721;28;20230;-64
2022/11/07 02:01:13;;;;;;;2.67;2.57;;;;;;;;;;4947898;28;20218;-66
2022/11/07 02:03:39;;;;;;;2.70;2.60;;;;;;;;;;4945810;28;20226;-65
2022/11/07 02:06:06;;;;;;;2.43;2.33;;;;;;;;;;4960407;28;20245;-65
2022/11/07 02:08:32;;;;;;;2.60;2.50;;;;;;;;;;4950948;28;20812;-66
2022/11/07 02:10:59;;;;;;;2.77;2.67;;;;;;;;;;4961449;28;20216;-66
2022/11/07 02:13:26;;;;;;;2.60;2.50;;;;;;;;;;4967388;28;20227;-66
2022/11/07 02:15:52;;;;;;;2.50;2.40;;;;;;;;;;4966729;28;20221;-64
2022/11/07 02:18:18;;;;;;;2.53;2.43;;;;;;;;;;4961328;28;20228;-65
2022/11/07 02:20:44;;;;;;;2.50;2.40;;;;;;;;;;4956571;28;20655;-64
2022/11/07 02:23:16;;;;;;;2.47;2.37;;;;;;;;;;4964227;28;20218;-64
2022/11/07 02:25:42;;;;;;;2.40;2.30;;;;;;;;;;4958473;28;20749;-64
2022/11/07 02:28:08;;;;;;;2.60;2.50;;;;;;;;;;4956045;28;20209;-64
2022/11/07 02:30:34;;;;;;;2.53;2.43;;;;;;;;;;4959064;28;20305;-65
2022/11/07 02:33:00;;;;;;;2.30;2.20;;;;;;;;;;4965409;28;20236;-63
2022/11/07 02:35:33;;;;;;;2.30;2.20;;;;;;;;;;4957985;28;26068;-65
2022/11/07 02:37:59;;;;;;;2.70;2.60;;;;;;;;;;4954750;28;20922;-64
2022/11/07 02:40:24;;;;;;;2.47;2.37;;;;;;;;;;4952183;28;20232;-65
2022/11/07 02:42:50;;;;;;;2.53;2.43;;;;;;;;;;4958090;28;20236;-65
2022/11/07 02:45:21;;;;;;;2.67;2.57;;;;;;;;;;4955739;28;20311;-66
2022/11/07 02:47:47;;;;;;;2.60;2.50;;;;;;;;;;4960265;28;20256;-64
2022/11/07 02:50:13;;;;;;;2.67;2.57;;;;;;;;;;4963936;28;20710;-65
2022/11/07 02:52:39;;;;;;;2.67;2.57;;;;;;;;;;4961852;28;21176;-65
2022/11/07 02:55:05;;;;;;;2.47;2.37;;;;;;;;;;4953973;28;20249;-64
2022/11/07 02:57:31;;;;;;;2.50;2.40;;;;;;;;;;4952749;28;20231;-64
2022/11/07 02:59:57;;;;;;;2.40;2.30;;;;;;;;;;4964593;28;20240;-64
2022/11/07 03:02:23;;;;;;;2.43;2.33;;;;;;;;;;4968222;28;20317;-65
2022/11/07 03:04:49;;;;;;;2.40;2.30;;;;;;;;;;4953986;28;20223;-66
2022/11/07 03:07:15;;;;;;;2.40;2.30;;;;;;;;;;4967748;28;20245;-64
2022/11/07 03:09:41;;;;;;;2.47;2.37;;;;;;;;;;4953337;28;20301;-65
2022/11/07 03:12:07;;;;;;;2.30;2.20;;;;;;;;;;4954406;28;20862;-64
2022/11/07 03:14:33;;;;;;;2.40;2.30;;;;;;;;;;4966490;28;20253;-66
2022/11/07 03:16:59;;;;;;;2.23;2.13;;;;;;;;;;4966293;28;20225;-64
2022/11/07 03:19:25;;;;;;;2.40;2.30;;;;;;;;;;4962222;28;20598;-63
2022/11/07 03:21:51;;;;;;;2.20;2.10;;;;;;;;;;4960591;28;20225;-66
2022/11/07 03:24:17;;;;;;;2.57;2.47;;;;;;;;;;4966138;28;20676;-65
2022/11/07 03:26:43;;;;;;;2.03;1.93;;;;;;;;;;4960424;28;20213;-64
2022/11/07 03:29:09;;;;;;;2.20;2.10;;;;;;;;;;4952827;28;20234;-64
2022/11/07 03:31:35;;;;;;;2.20;2.10;;;;;;;;;;4956875;28;20702;-63
2022/11/07 03:34:01;;;;;;;2.30;2.20;;;;;;;;;;4952434;28;20686;-65
2022/11/07 03:36:27;;;;;;;2.20;2.10;;;;;;;;;;4954033;28;20531;-66
2022/11/07 03:38:53;;;;;;;2.20;2.10;;;;;;;;;;4950606;28;20234;-65
2022/11/07 03:41:19;;;;;;;2.40;2.30;;;;;;;;;;4954220;28;20849;-64
2022/11/07 03:43:45;;;;;;;2.50;2.40;;;;;;;;;;4955415;28;20229;-63
2022/11/07 03:46:14;;;;;;;2.70;2.60;;;;;;;;;;4951782;28;20227;-64
2022/11/07 03:48:40;;;;;;;2.60;2.50;;;;;;;;;;4961241;28;20249;-64
2022/11/07 03:51:07;;;;;;;2.77;2.67;;;;;;;;;;4954717;28;20221;-65
2022/11/07 03:53:33;;;;;;;2.50;2.40;;;;;;;;;;4941137;28;20217;-66
2022/11/07 03:55:59;;;;;;;2.67;2.57;;;;;;;;;;4952771;28;20229;-65
2022/11/07 03:58:25;;;;;;;2.40;2.30;;;;;;;;;;4956911;28;20233;-66
2022/11/07 04:00:51;;;;;;;2.50;2.40;;;;;;;;;;4950008;28;20238;-66
2022/11/07 04:03:17;;;;;;;2.40;2.30;;;;;;;;;;4960579;28;20752;-64
2022/11/07 04:05:43;;;;;;;2.50;2.40;;;;;;;;;;4951123;28;20259;-65
2022/11/07 04:08:09;;;;;;;2.40;2.30;;;;;;;;;;4960762;28;20400;-64
2022/11/07 04:10:35;;;;;;;2.50;2.40;;;;;;;;;;4954434;28;21651;-66
2022/11/07 04:18:32;;;;;;;2.23;2.13;;;;;;;;;;4956916;28;21451;-64
2022/11/07 04:20:58;;;;;;;2.60;2.50;;;;;;;;;;4949052;28;20226;-64
2022/11/07 04:23:24;;;;;;;2.50;2.40;;;;;;;;;;4954900;28;20321;-66
2022/11/07 04:28:34;;;;;;;2.57;2.47;;;;;;;;;;4950298;28;20293;-65
2022/11/07 04:31:00;;;;;;;2.77;2.67;;;;;;;;;;4958076;28;20283;-66
2022/11/07 04:33:26;;;;;;;2.60;2.50;;;;;;;;;;4959412;28;20463;-64
2022/11/07 04:35:52;;;;;;;2.73;2.63;;;;;;;;;;4947372;28;20229;-64
2022/11/07 04:38:18;;;;;;;2.50;2.40;;;;;;;;;;4958524;28;20652;-66
2022/11/07 04:40:44;;;;;;;2.57;2.47;;;;;;;;;;4950376;28;20741;-65
2022/11/07 04:43:10;;;;;;;2.57;2.47;;;;;;;;;;4957495;28;20464;-66
2022/11/07 04:45:36;;;;;;;2.50;2.40;;;;;;;;;;4943914;28;20817;-65
2022/11/07 04:48:02;;;;;;;2.57;2.47;;;;;;;;;;4955115;28;20218;-65
2022/11/07 04:50:28;;;;;;;2.70;2.60;;;;;;;;;;4958203;28;20234;-65
2022/11/07 04:52:55;;;;;;;2.70;2.60;;;;;;;;;;4965934;28;20223;-65
2022/11/07 04:55:22;;;;;;;2.60;2.50;;;;;;;;;;4950282;28;20232;-65
2022/11/07 04:57:48;;;;;;;2.53;2.43;;;;;;;;;;4960339;28;20234;-67
2022/11/07 05:00:14;;;;;;;2.60;2.50;;;;;;;;;;4977553;28;20435;-65
2022/11/07 05:02:40;;;;;;;2.60;2.50;;;;;;;;;;4938407;28;20241;-65
2022/11/07 05:05:06;;;;;;;2.73;2.63;;;;;;;;;;4962643;28;20226;-64
2022/11/07 05:07:32;;;;;;;2.70;2.60;;;;;;;;;;4953361;28;20246;-63
2022/11/07 05:09:58;;;;;;;2.70;2.60;;;;;;;;;;4947856;28;20235;-66
2022/11/07 05:12:24;;;;;;;3.17;3.07;;;;;;;;;;4949136;28;20286;-66
2022/11/07 05:14:50;;;;;;;2.90;2.80;;;;;;;;;;4946595;28;20317;-66
2022/11/07 05:17:16;;;;;;;3.10;3.00;;;;;;;;;;4930698;28;21340;-64
2022/11/07 05:19:42;;;;;;;2.90;2.80;;;;;;;;;;4939481;28;20764;-67
2022/11/07 05:24:53;;;;;;;3.50;3.40;;;;;;;;;;4948862;28;20257;-70
2022/11/07 05:27:20;;;;;;;3.17;3.07;;;;;;;;;;4914642;28;20499;-67
2022/11/07 05:29:45;;;;;;;3.10;3.00;;;;;;;;;;4956040;28;20650;-65
2022/11/07 05:32:11;;;;;;;3.37;3.27;;;;;;;;;;4945084;28;20226;-68
2022/11/07 05:34:37;;;;;;;3.40;3.30;;;;;;;;;;4947487;28;20228;-66
2022/11/07 05:37:06;;;;;;;3.00;2.90;;;;;;;;;;4953664;28;20284;-66
2022/11/07 05:39:32;;;;;;;1.40;1.40;;;;;;;;;;4951229;28;20537;-65
2022/11/07 05:41:59;;;;;;;1.30;1.30;;;;;;;;;;4952864;28;20348;-65
2022/11/07 05:44:25;;;;;;;1.30;1.30;;;;;;;;;;4957226;28;20230;-65
2022/11/07 05:46:51;;;;;;;1.43;1.43;;;;;;;;;;4954726;28;20233;-64
2022/11/07 05:49:17;;;;;;;1.43;1.43;;;;;;;;;;4946719;28;20658;-65
2022/11/07 05:51:43;;;;;;;1.40;1.40;;;;;;;;;;4936654;28;20235;-65
2022/11/07 05:54:09;;;;;;;1.50;1.50;;;;;;;;;;4939960;28;20230;-66
2022/11/07 05:56:36;;;;;;;1.50;1.50;;;;;;;;;;4944634;28;21263;-65
2022/11/07 05:59:03;;;;;;;1.43;1.43;;;;;;;;;;4933374;28;20277;-65
2022/11/07 06:01:29;;;;;;;1.43;1.43;;;;;;;;;;4945205;28;20292;-66
2022/11/07 06:03:55;;;;;;;1.40;1.40;;;;;;;;;;4946395;28;20230;-65
2022/11/07 06:06:21;;;;;;;1.30;1.30;;;;;;;;;;4944385;28;20292;-65
2022/11/07 06:08:46;;;;;;;1.50;1.50;;;;;;;;;;4943115;28;26446;-64
2022/11/07 06:11:12;;;;;;;1.40;1.40;;;;;;;;;;4949691;28;20262;-66
2022/11/07 06:13:38;;;;;;;1.40;1.40;;;;;;;;;;4948647;28;20232;-64
2022/11/07 06:16:04;;;;;;;1.40;1.40;;;;;;;;;;4953186;28;20209;-61
2022/11/07 06:18:30;;;;;;;1.23;1.23;;;;;;;;;;4955635;28;20700;-66
2022/11/07 06:20:56;;;;;;;1.20;1.20;;;;;;;;;;4937215;28;20831;-64
2022/11/07 06:23:22;;;;;;;1.20;1.20;;;;;;;;;;4957519;28;20721;-63
2022/11/07 06:25:50;;;;;;;1.20;1.20;;;;;;;;;;4950987;28;20222;-64
2022/11/07 06:28:16;;;;;;;1.30;1.30;;;;;;;;;;4940891;28;20294;-65
2022/11/07 06:30:42;;;;;;;1.10;1.10;;;;;;;;;;4951385;28;20231;-61
2022/11/07 06:33:08;;;;;;;1.20;1.20;;;;;;;;;;4967429;28;20708;-65
2022/11/07 06:35:34;;;;;;;1.33;1.33;;;;;;;;;;4961293;28;20701;-63
2022/11/07 06:38:01;;;;;;;1.10;1.10;;;;;;;;;;4962064;28;20226;-62
2022/11/07 06:40:27;;;;;;;1.33;1.33;;;;;;;;;;4965364;28;20233;-62
2022/11/07 06:42:53;;;;;;;1.30;1.30;;;;;;;;;;4956814;28;20639;-62
2022/11/07 06:45:19;;;;;;;1.30;1.30;;;;;;;;;;4958517;28;20248;-62
2022/11/07 06:47:45;;;;;;;1.20;1.20;;;;;;;;;;4965680;28;20712;-62
2022/11/07 06:50:11;;;;;;;1.30;1.30;;;;;;;;;;4967813;28;20321;-63
2022/11/07 06:52:37;;;;;;;1.30;1.30;;;;;;;;;;4960066;28;20915;-62
2022/11/07 06:55:03;;;;;;;1.20;1.20;;;;;;;;;;4963650;28;20309;-62
2022/11/07 06:57:29;;;;;;;1.20;1.20;;;;;;;;;;4965621;28;20337;-65
2022/11/07 06:59:55;;;;;;;1.30;1.30;;;;;;;;;;4964279;28;20333;-65
2022/11/07 07:02:21;;;;;;;1.30;1.30;;;;;;;;;;4959594;28;20233;-63
2022/11/07 07:04:47;;;;;;;1.20;1.20;;;;;;;;;;4965378;28;20227;-61
2022/11/07 07:07:13;;;;;;;1.20;1.20;;;;;;;;;;4962665;28;20717;-64
2022/11/07 07:09:39;;;;;;;1.10;1.10;;;;;;;;;;4961086;28;20325;-64
2022/11/07 07:12:05;;;;;;;1.10;1.10;;;;;;;;;;4962361;28;20233;-62
2022/11/07 07:14:31;;;;;;;1.10;1.10;;;;;;;;;;4965399;28;20219;-62
2022/11/07 07:16:58;;;;;;;1.10;1.10;;;;;;;;;;4954038;28;20238;-63
2022/11/07 07:19:24;;;;;;;1.20;1.20;;;;;;;;;;4948824;28;20235;-63
2022/11/07 07:21:50;;;;;;;1.00;1.00;;;;;;;;;;4946192;28;20227;-63
2022/11/07 07:24:16;;;;;;;1.10;1.10;;;;;;;;;;4961857;28;20831;-63
2022/11/07 07:26:42;;;;;;;1.03;1.03;;;;;;;;;;4958553;28;20229;-62
2022/11/07 07:29:07;;;;;;;1.17;1.17;;;;;;;;;;4955892;28;20240;-62
2022/11/07 07:31:33;;;;;;;1.10;1.10;;;;;;;;;;4958185;28;20223;-65
2022/11/07 07:33:59;;;;;;;1.10;1.10;;;;;;;;;;4963056;28;21160;-62
2022/11/07 07:36:25;;;;;;;1.30;1.30;;;;;;;;;;4965653;28;20249;-63
2022/11/07 07:38:51;;;;;;;1.30;1.30;;;;;;;;;;4955190;28;20230;-61
2022/11/07 07:41:18;;;;;;;1.10;1.10;;;;;;;;;;4954358;28;20264;-61
2022/11/07 07:43:43;;;;;;;1.20;1.20;;;;;;;;;;4955942;28;20366;-63
2022/11/07 07:46:10;;;;;;;1.10;1.10;;;;;;;;;;4953130;28;20664;-65
2022/11/07 07:48:36;;;;;;;1.10;1.10;;;;;;;;;;4945843;28;20554;-65
2022/11/07 07:51:02;;;;;;;1.10;1.10;;;;;;;;;;4950489;28;20605;-62
2022/11/07 07:53:28;;;;;;;1.10;1.10;;;;;;;;;;4944629;28;20270;-66
2022/11/07 07:55:57;;;;;;;1.00;1.00;;;;;;;;;;4957276;28;20245;-64
2022/11/07 07:58:24;;;;;;;1.20;1.20;;;;;;;;;;4963445;28;20222;-63
2022/11/07 08:00:53;;;;;;;1.20;1.20;;;;;;;;;;4955589;28;20265;-63
2022/11/07 08:03:19;;;;;;;1.17;1.17;;;;;;;;;;4962853;28;20253;-62
2022/11/07 08:05:50;;;;;;;1.10;1.10;;;;;;;;;;4952099;28;20222;-63
2022/11/07 08:08:16;;;;;;;1.10;1.10;;;;;;;;;;4942226;28;20270;-64
2022/11/07 08:10:42;;;;;;;1.20;1.20;;;;;;;;;;4949332;28;20250;-63
2022/11/07 08:13:08;;;;;;;1.00;1.00;;;;;;;;;;4951740;28;20317;-63
2022/11/07 08:15:34;;;;;;;1.10;1.10;;;;;;;;;;4966025;28;20256;-65
2022/11/07 08:18:01;;;;;;;1.10;1.10;;;;;;;;;;4962003;28;20226;-64
2022/11/07 08:20:27;;;;;;;1.10;1.10;;;;;;;;;;4963632;28;20230;-63
2022/11/07 08:23:00;;;;;;;1.10;1.10;;;;;;;;;;4969084;28;20242;-62
2022/11/07 08:25:26;;;;;;;1.10;1.10;;;;;;;;;;4959634;28;20308;-64
2022/11/07 08:27:52;;;;;;;1.10;1.10;;;;;;;;;;4954347;28;20229;-63
2022/11/07 08:30:18;;;;;;;1.10;1.10;;;;;;;;;;4955756;28;20858;-62
2022/11/07 08:32:44;;;;;;;1.10;1.10;;;;;;;;;;4948495;28;20713;-64
2022/11/07 08:35:10;;;;;;;1.20;1.20;;;;;;;;;;4950403;28;20228;-63
2022/11/07 08:37:36;;;;;;;1.13;1.13;;;;;;;;;;4951097;28;20346;-65
2022/11/07 08:40:02;;;;;;;1.10;1.10;;;;;;;;;;4957684;28;20301;-62
2022/11/07 08:42:28;;;;;;;1.10;1.10;;;;;;;;;;4954096;28;20226;-65
2022/11/07 08:44:54;;;;;;;1.10;1.10;;;;;;;;;;4953326;28;20226;-62
2022/11/07 08:47:20;;;;;;;1.10;1.10;;;;;;;;;;4968350;28;20736;-62
2022/11/07 08:49:46;;;;;;;1.00;1.00;;;;;;;;;;4968016;28;20235;-65
2022/11/07 08:52:12;;;;;;;1.10;1.10;;;;;;;;;;4959889;28;20755;-62
2022/11/07 08:54:38;;;;;;;1.20;1.20;;;;;;;;;;4966195;28;21103;-65
2022/11/07 08:57:04;;;;;;;1.10;1.10;;;;;;;;;;4964141;28;20226;-63
2022/11/07 08:59:30;;;;;;;1.10;1.10;;;;;;;;;;4969989;28;20222;-64
2022/11/07 09:01:56;;;;;;;1.10;1.10;;;;;;;;;;4962752;28;20231;-62
2022/11/07 09:04:21;;;;;;;1.20;1.20;;;;;;;;;;4960208;28;20215;-62
2022/11/07 09:06:47;;;;;;;1.20;1.20;;;;;;;;;;4963704;28;21596;-65
2022/11/07 09:09:13;;;;;;;1.20;1.20;;;;;;;;;;4972110;28;20242;-62
2022/11/07 09:11:41;;;;;;;1.20;1.20;;;;;;;;;;4966712;28;20214;-65
2022/11/07 09:14:06;;;;;;;1.17;1.17;;;;;;;;;;4949682;28;20242;-64
2022/11/07 09:16:32;;;;;;;1.10;1.10;;;;;;;;;;4963074;28;20276;-62
2022/11/07 09:18:58;;;;;;;1.13;1.13;;;;;;;;;;4968489;28;20358;-64
2022/11/07 09:21:24;;;;;;;1.30;1.30;;;;;;;;;;4971560;28;20661;-65
2022/11/07 09:23:51;;;;;;;1.00;1.00;;;;;;;;;;4957795;28;20227;-62
2022/11/07 09:26:16;;;;;;;1.30;1.30;;;;;;;;;;4965760;28;20222;-63
2022/11/07 09:28:42;;;;;;;1.00;1.00;;;;;;;;;;4959593;28;20732;-66
2022/11/07 09:31:08;;;;;;;1.20;1.20;;;;;;;;;;4970455;28;20286;-62
2022/11/07 09:33:34;;;;;;;1.30;1.30;;;;;;;;;;4964421;28;20226;-64
2022/11/07 09:36:01;;;;;;;1.20;1.20;;;;;;;;;;4971965;28;20317;-64
2022/11/07 09:38:27;;;;;;;1.20;1.20;;;;;;;;;;4971356;28;20365;-62
2022/11/07 09:40:56;;;;;;;1.20;1.20;;;;;;;;;;4976122;28;20249;-63
2022/11/07 09:43:44;;;;;;;1.30;1.30;;;;;;;;;;4963153;28;20977;-65
2022/11/07 09:46:19;;;;;;;1.10;1.10;;;;;;;;;;4963894;28;20327;-61
2022/11/07 09:49:05;;;;;;;1.30;1.30;;;;;;;;;;4961771;28;20226;-62
2022/11/07 09:51:38;;;;;;;1.17;1.17;;;;;;;;;;4953757;28;20259;-62
2022/11/07 09:54:11;;;;;;;1.27;1.27;;;;;;;;;;4974447;28;20237;-63
2022/11/07 09:56:38;;;;;;;1.20;1.20;;;;;;;;;;4965835;28;20226;-64
2022/11/07 09:59:07;;;;;;;1.20;1.20;;;;;;;;;;4950273;28;21087;-63
2022/11/07 10:01:33;;;;;;;1.20;1.20;;;;;;;;;;4960595;28;20623;-63
2022/11/07 10:03:59;;;;;;;1.30;1.30;;;;;;;;;;4970503;28;20220;-65
2022/11/07 10:06:25;;;;;;;2.00;1.90;;;;;;;;;;4968097;28;20301;-65
2022/11/07 10:08:51;;;;;;;1.67;1.67;;;;;;;;;;4970020;28;20371;-63
2022/11/07 10:11:29;;;;;;;2.00;1.90;;;;;;;;;;4973496;28;20233;-63
2022/11/07 10:14:10;;;;;;;2.10;2.00;;;;;;;;;;4939912;28;20229;-62
2022/11/07 10:16:46;;;;;;;2.20;2.10;;;;;;;;;;4977865;28;20233;-64
2022/11/07 10:19:16;;;;;;;1.90;1.80;;;;;;;;;;4974447;28;20244;-65
2022/11/07 10:21:49;;;;;;;2.40;2.30;;;;;;;;;;4953495;28;20222;-62
2022/11/07 10:24:30;;;;;;;2.50;2.40;;;;;;;;;;4973945;28;20316;-62
2022/11/07 10:26:57;;;;;;;2.40;2.30;;;;;;;;;;4954457;28;20326;-62
2022/11/07 10:29:25;;;;;;;1.90;1.80;;;;;;;;;;4973652;28;20700;-62
2022/11/07 10:31:54;;;;;;;1.90;1.80;;;;;;;;;;4949332;28;20244;-62
2022/11/07 10:34:26;;;;;;;1.90;1.80;;;;;;;;;;4972797;28;20219;-65
2022/11/07 10:36:52;;;;;;;1.87;1.77;;;;;;;;;;4964710;28;20230;-62
2022/11/07 10:39:18;;;;;;;1.20;1.20;;;;;;;;;;4976444;28;20236;-62
2022/11/07 10:41:46;;;;;;;1.00;1.00;;;;;;;;;;4973962;28;20332;-62
2022/11/07 10:44:25;;;;;;;1.10;1.10;;;;;;;;;;4964673;28;20227;-62
2022/11/07 10:46:51;;;;;;;1.00;1.00;;;;;;;;;;4945824;28;20225;-63
2022/11/07 10:49:21;;;;;;;1.80;1.70;;;;;;;;;;4987723;28;20240;-65
2022/11/07 10:51:47;;;;;;;1.20;1.20;;;;;;;;;;4971030;28;20231;-65
2022/11/07 10:54:25;;;;;;;1.00;1.00;;;;;;;;;;4976263;28;20249;-62
2022/11/07 10:57:01;;;;;;;1.00;1.00;;;;;;;;;;4982109;28;20221;-62
2022/11/07 10:59:28;;;;;;;1.17;1.17;;;;;;;;;;4961253;28;20262;-63
2022/11/07 11:01:54;;;;;;;1.00;1.00;;;;;;;;;;4973946;28;20221;-63
2022/11/07 11:04:24;;;;;;;1.20;1.20;;;;;;;;;;4974902;28;20279;-65
2022/11/07 11:07:00;;;;;;;1.03;1.03;;;;;;;;;;4967193;28;20222;-63
2022/11/07 11:09:32;;;;;;;1.00;1.00;;;;;;;;;;4957230;28;20293;-63
2022/11/07 11:12:03;;;;;;;1.10;1.10;;;;;;;;;;4966487;28;20254;-65
2022/11/07 11:14:28;;;;;;;1.10;1.10;;;;;;;;;;4971083;28;20231;-63
2022/11/07 11:16:56;;;;;;;1.00;1.00;;;;;;;;;;4961862;28;20884;-63
2022/11/07 11:19:26;;;;;;;0.90;0.90;;;;;;;;;;4984203;28;20285;-62
2022/11/07 11:21:54;;;;;;;1.10;1.10;;;;;;;;;;4972400;28;20228;-62
2022/11/07 11:24:30;;;;;;;2.10;2.00;;;;;;;;;;4971954;28;20234;-62
2022/11/07 11:27:01;;;;;;;3.13;3.03;;;;;;;;;;4966826;28;20230;-62
2022/11/07 11:29:38;;;;;;;1.63;1.63;;;;;;;;;;4957336;28;20265;-65
2022/11/07 11:32:04;;;;;;;1.23;1.23;;;;;;;;;;4974238;28;20592;-63
2022/11/07 11:34:51;;;;;;;1.10;1.10;;;;;;;;;;4974118;28;20225;-64
2022/11/07 11:37:21;;;;;;;1.30;1.30;;;;;;;;;;4992361;28;20227;-64
2022/11/07 11:39:49;;;;;;;1.20;1.20;;;;;;;;;;4987653;28;20343;-64
2022/11/07 11:42:38;;;;;;;1.20;1.20;;;;;;;;;;4962980;28;20703;-62
2022/11/07 11:45:10;;;;;;;2.23;2.13;;;;;;;;;;4977029;28;20244;-62
2022/11/07 11:47:37;;;;;;;1.10;1.10;;;;;;;;;;4976356;28;20308;-64
2022/11/07 11:50:04;;;;;;;0.60;0.60;;;;;;;;;;4979063;28;20577;-65
2022/11/07 11:52:34;;;;;;;0.90;0.90;;;;;;;;;;4978994;28;20273;-62
2022/11/07 11:55:00;;;;;;;0.90;0.90;;;;;;;;;;4980200;28;20304;-63
2022/11/07 11:57:30;;;;;;;1.00;1.00;;;;;;;;;;4975944;28;20250;-63
2022/11/07 11:59:56;;;;;;;1.20;1.20;;;;;;;;;;4972128;28;20283;-63
2022/11/07 12:02:45;;;;;;;1.07;1.07;;;;;;;;;;4976652;28;20704;-62
2022/11/07 12:05:11;;;;;;;0.90;0.90;;;;;;;;;;4973570;28;20273;-63
2022/11/07 12:07:41;;;;;;;0.93;0.93;;;;;;;;;;4964828;28;20242;-65
2022/11/07 12:10:27;;;;;;;1.00;1.00;;;;;;;;;;4960978;28;20238;-62
2022/11/07 12:12:53;;;;;;;0.80;0.80;;;;;;;;;;4961222;28;20230;-63
2022/11/07 12:15:24;;;;;;;1.00;1.00;;;;;;;;;;4946358;28;20232;-65
2022/11/07 12:17:55;;;;;;;1.17;1.17;;;;;;;;;;4973269;28;20826;-65
2022/11/07 12:20:41;;;;;;;1.20;1.20;;;;;;;;;;4964473;28;20230;-63
2022/11/07 12:23:16;;;;;;;1.10;1.10;;;;;;;;;;4970408;28;20393;-66
2022/11/07 12:25:42;;;;;;;1.10;1.10;;;;;;;;;;4970062;28;20250;-67
2022/11/07 12:28:17;;;;;;;1.10;1.10;;;;;;;;;;4986820;28;20284;-67
2022/11/07 12:30:52;;;;;;;1.40;1.40;;;;;;;;;;4973577;28;20238;-66
2022/11/07 12:33:25;;;;;;;1.50;1.50;;;;;;;;;;4978438;28;20229;-67
2022/11/07 12:35:53;;;;;;;1.40;1.40;;;;;;;;;;4963931;28;20827;-67
2022/11/07 12:38:25;;;;;;;1.30;1.30;;;;;;;;;;4968492;28;21234;-67
2022/11/07 12:40:51;;;;;;;1.50;1.50;;;;;;;;;;4958669;28;20209;-67
2022/11/07 12:43:17;;;;;;;1.60;1.60;;;;;;;;;;4967660;28;20629;-67
2022/11/07 12:46:02;;;;;;;1.90;1.80;;;;;;;;;;4986993;28;20241;-67
2022/11/07 12:48:37;;;;;;;0.90;0.90;;;;;;;;;;4987054;28;20262;-67
2022/11/07 12:51:19;;;;;;;1.00;1.00;;;;;;;;;;4988592;28;20215;-65
2022/11/07 12:53:51;;;;;;;1.20;1.20;;;;;;;;;;4980925;28;20223;-66
2022/11/07 12:56:19;;;;;;;1.13;1.13;;;;;;;;;;4978532;28;20221;-66
2022/11/07 12:58:45;;;;;;;1.90;1.80;;;;;;;;;;4965759;28;20216;-67
2022/11/07 13:01:12;;;;;;;2.00;1.90;;;;;;;;;;4957760;28;20218;-65
2022/11/07 13:03:38;;;;;;;1.87;1.77;;;;;;;;;;4949090;28;20222;-67
2022/11/07 13:06:09;;;;;;;1.50;1.50;;;;;;;;;;4964085;28;20250;-64
2022/11/07 13:08:41;;;;;;;1.67;1.67;;;;;;;;;;4960365;28;20268;-64
2022/11/07 13:11:16;;;;;;;1.90;1.80;;;;;;;;;;4950154;28;20227;-66
2022/11/07 13:13:48;;;;;;;1.33;1.33;;;;;;;;;;4976074;28;20572;-64
2022/11/07 13:16:23;;;;;;;1.47;1.47;;;;;;;;;;4956862;28;20842;-65
2022/11/07 13:18:49;;;;;;;1.40;1.40;;;;;;;;;;4946695;28;20827;-66
2022/11/07 13:21:15;;;;;;;1.33;1.33;;;;;;;;;;4957025;28;20730;-64
2022/11/07 13:23:42;;;;;;;1.30;1.30;;;;;;;;;;4957495;28;20223;-64
2022/11/07 13:26:08;;;;;;;1.30;1.30;;;;;;;;;;4964285;28;20301;-65
2022/11/07 13:28:41;;;;;;;1.20;1.20;;;;;;;;;;4954212;28;20848;-66
2022/11/07 13:31:27;;;;;;;1.30;1.30;;;;;;;;;;4970047;28;20225;-67
2022/11/07 13:33:52;;;;;;;1.47;1.47;;;;;;;;;;4961185;28;20590;-65
2022/11/07 13:36:25;;;;;;;1.90;1.80;;;;;;;;;;4981218;28;20238;-64
2022/11/07 13:38:51;;;;;;;1.30;1.30;;;;;;;;;;4970296;28;20230;-64
2022/11/07 13:41:17;;;;;;;1.40;1.40;;;;;;;;;;4979317;28;20225;-65
2022/11/07 13:43:45;;;;;;;1.40;1.40;;;;;;;;;;4957209;28;20621;-67
2022/11/07 13:46:16;;;;;;;1.20;1.20;;;;;;;;;;4940318;28;20280;-67
2022/11/07 13:48:58;;;;;;;1.50;1.50;;;;;;;;;;4972315;28;20295;-65
2022/11/07 13:51:41;;;;;;;1.57;1.57;;;;;;;;;;4968486;28;20277;-65
2022/11/07 13:54:26;;;;;;;1.50;1.50;;;;;;;;;;4969503;28;20260;-64
2022/11/07 13:57:10;;;;;;;1.43;1.43;;;;;;;;;;4974919;28;20259;-66
2022/11/07 13:59:45;;;;;;;1.60;1.60;;;;;;;;;;4960224;28;20283;-65
2022/11/07 14:02:18;;;;;;;1.10;1.10;;;;;;;;;;4955633;28;20267;-64
2022/11/07 14:04:47;;;;;;;1.40;1.40;;;;;;;;;;4953053;28;20268;-67
2022/11/07 14:07:13;;;;;;;1.40;1.40;;;;;;;;;;4963237;28;20354;-65
2022/11/07 14:09:39;;;;;;;1.50;1.50;;;;;;;;;;4970930;28;20231;-65
2022/11/07 14:12:05;;;;;;;1.20;1.20;;;;;;;;;;4967274;28;20233;-67
2022/11/07 14:14:31;;;;;;;1.33;1.33;;;;;;;;;;4955938;28;20589;-65
2022/11/07 14:16:57;;;;;;;1.23;1.23;;;;;;;;;;4969370;28;20256;-67
2022/11/07 14:19:29;;;;;;;1.23;1.23;;;;;;;;;;4974925;28;20233;-65
2022/11/07 14:21:55;;;;;;;1.30;1.30;;;;;;;;;;4955408;28;20226;-67
2022/11/07 14:24:25;;;;;;;1.20;1.20;;;;;;;;;;4972689;28;20310;-66
2022/11/07 14:27:17;;;;;;;1.80;1.70;;;;;;;;;;4952152;28;20235;-67
2022/11/07 14:29:59;;;;;;;1.63;1.63;;;;;;;;;;4965050;28;20242;-66
2022/11/07 14:32:25;;;;;;;1.60;1.60;;;;;;;;;;4977674;28;20221;-66
2022/11/07 14:34:52;;;;;;;1.20;1.20;;;;;;;;;;4974086;28;20240;-65
2022/11/07 14:37:22;;;;;;;1.40;1.40;;;;;;;;;;4940849;28;26452;-66
2022/11/07 14:39:48;;;;;;;1.40;1.40;;;;;;;;;;4963114;28;20222;-64
2022/11/07 14:42:16;;;;;;;1.00;1.00;;;;;;;;;;4963766;28;21035;-65
2022/11/07 14:44:42;;;;;;;1.10;1.10;;;;;;;;;;4972917;28;20238;-63
2022/11/07 14:47:11;;;;;;;0.70;0.70;;;;;;;;;;4968938;28;20225;-66
2022/11/07 14:49:41;;;;;;;0.80;0.80;;;;;;;;;;4961270;28;20230;-62
2022/11/07 14:52:07;;;;;;;0.93;0.93;;;;;;;;;;4963504;28;20285;-64
2022/11/07 14:54:37;;;;;;;0.90;0.90;;;;;;;;;;4972781;28;20219;-67
2022/11/07 14:57:03;;;;;;;0.90;0.90;;;;;;;;;;4970583;28;20353;-65
2022/11/07 14:59:32;;;;;;;0.70;0.70;;;;;;;;;;4974647;28;20222;-66
2022/11/07 15:02:07;;;;;;;0.70;0.70;;;;;;;;;;4955804;28;20223;-64